createdAt,value
2019-04-21T00:02:29.651Z,238.53
2019-04-21T00:12:51.806Z,310.07
2019-04-21T00:17:52.739Z,184.07
2019-04-21T00:23:13.144Z,203.33
2019-04-21T00:28:24.127Z,257.87
2019-04-21T00:33:28.858Z,195.25
2019-04-21T00:39:09.962Z,278.45
2019-04-21T00:43:59.420Z,428.50
2019-04-21T00:49:06.177Z,673.43
2019-04-21T00:54:35.833Z,498.00
2019-04-21T00:59:34.917Z,410.70
2019-04-21T01:04:42.926Z,630.83
2019-04-21T01:09:45.889Z,353.20
2019-04-21T01:15:04.192Z,501.63
2019-04-21T01:20:01.425Z,565.90
2019-04-21T01:25:04.561Z,398.40
2019-04-21T01:30:24.940Z,308.63
2019-04-21T01:35:26.983Z,209.00
2019-04-21T01:40:42.830Z,183.40
2019-04-21T01:45:51.944Z,133.40
2019-04-21T01:50:55.305Z,112.37
2019-04-21T02:01:42.329Z,62.40
2019-04-21T02:12:06.074Z,42.70
2019-04-21T02:17:05.548Z,41.57
2019-04-21T02:22:04.908Z,39.78
2019-04-21T02:37:55.530Z,575.63
2019-04-21T02:48:06.671Z,244.17
2019-04-21T02:53:12.289Z,343.53
2019-04-21T03:03:54.878Z,176.85
2019-04-21T03:14:05.389Z,66.90
2019-04-21T03:24:29.522Z,43.40
2019-04-21T03:29:19.807Z,38.70
2019-04-21T03:34:47.995Z,36.47
2019-04-21T03:44:37.353Z,33.07
2019-04-21T03:49:56.350Z,32.97
2019-04-21T03:55:23.606Z,31.13
2019-04-21T04:00:06.593Z,29.43
2019-04-21T04:05:26.457Z,29.50
2019-04-21T04:10:24.477Z,30.67
2019-04-21T04:41:28.967Z,27.73
2019-04-21T04:51:56.409Z,29.37
2019-04-21T04:56:40.425Z,29.63
2019-04-21T05:01:57.633Z,28.83
2019-04-21T05:07:07.122Z,28.45
2019-04-21T05:11:55.364Z,27.93
2019-04-21T05:22:17.291Z,27.67
2019-04-21T05:27:12.652Z,27.23
2019-04-21T05:32:38.276Z,27.40
2019-04-21T05:42:48.593Z,25.30
2019-04-21T05:48:04.312Z,24.30
2019-04-21T06:08:30.859Z,24.93
2019-04-21T06:13:43.927Z,24.92
2019-04-21T06:18:48.833Z,24.52
2019-04-21T06:23:49.652Z,25.40
2019-04-21T06:29:01.016Z,25.00
2019-04-21T06:34:49.622Z,26.27
2019-04-21T06:39:34.846Z,26.17
2019-04-21T06:44:46.851Z,25.40
2019-04-21T06:49:44.280Z,24.93
2019-04-21T06:55:02.641Z,26.17
2019-04-21T07:00:03.523Z,24.82
2019-04-21T07:05:13.262Z,25.10
2019-04-21T07:10:22.029Z,22.20
2019-04-21T07:15:30.402Z,22.20
2019-04-21T07:20:36.729Z,22.63
2019-04-21T07:25:47.589Z,19.60
2019-04-21T07:30:53.466Z,23.13
2019-04-21T07:35:59.427Z,21.70
2019-04-21T07:40:59.648Z,21.15
2019-04-21T07:46:02.703Z,21.05
2019-04-21T07:51:25.477Z,20.47
2019-04-21T07:56:16.176Z,19.83
2019-04-21T08:01:42.323Z,21.12
2019-04-21T08:06:49.551Z,18.63
2019-04-21T08:11:48.697Z,19.43
2019-04-21T08:17:04.908Z,19.37
2019-04-21T08:22:12.595Z,19.67
2019-04-21T08:32:26.622Z,18.50
2019-04-21T08:42:43.267Z,18.53
2019-04-21T08:53:09.443Z,19.07
2019-04-21T08:58:17.487Z,19.40
2019-04-21T09:03:16.997Z,18.77
2019-04-21T09:08:28.122Z,17.30
2019-04-21T09:13:34.497Z,16.87
2019-04-21T09:18:32.462Z,16.70
2019-04-21T09:23:44.631Z,15.30
2019-04-21T09:28:47.990Z,16.57
2019-04-21T09:33:48.395Z,15.27
2019-04-21T09:38:57.736Z,15.63
2019-04-21T09:43:57.934Z,16.37
2019-04-21T09:49:09.497Z,15.53
2019-04-21T09:54:20.766Z,15.60
2019-04-21T09:59:28.157Z,15.03
2019-04-21T10:09:35.549Z,16.43
2019-04-21T10:14:42.933Z,15.80
2019-04-21T10:24:56.297Z,14.57
2019-04-21T10:30:03.598Z,14.67
2019-04-21T10:35:10.937Z,14.50
2019-04-21T10:45:25.127Z,13.37
2019-04-21T10:50:32.498Z,14.10
2019-04-21T10:55:54.404Z,13.97
2019-04-21T11:01:04.613Z,14.70
2019-04-21T11:06:12.691Z,13.87
2019-04-21T11:11:19.638Z,14.20
2019-04-21T11:16:26.931Z,14.13
2019-04-21T11:21:34.517Z,14.23
2019-04-21T11:31:49.326Z,13.60
2019-04-21T11:36:56.331Z,12.47
2019-04-21T11:42:04.000Z,12.37
2019-04-21T11:52:18.796Z,12.85
2019-04-21T11:57:28.782Z,13.07
2019-04-21T12:02:33.237Z,12.50
2019-04-21T12:12:45.469Z,12.90
2019-04-21T12:17:52.188Z,13.38
2019-04-21T12:28:05.765Z,12.00
2019-04-21T12:48:46.228Z,11.90
2019-04-21T12:53:54.018Z,12.70
2019-04-21T12:59:00.025Z,12.73
2019-04-21T13:04:08.076Z,12.37
2019-04-21T13:14:23.972Z,11.93
2019-04-21T13:24:37.999Z,11.43
2019-04-21T13:29:44.264Z,12.05
2019-04-21T13:34:51.095Z,12.13
2019-04-21T13:40:31.255Z,11.00
2019-04-21T13:50:23.678Z,10.93
2019-04-21T14:00:36.029Z,11.47
2019-04-21T14:10:49.373Z,11.53
2019-04-21T14:15:55.946Z,11.15
2019-04-21T14:21:03.115Z,10.90
2019-04-21T14:26:09.081Z,11.23
2019-04-21T14:31:16.522Z,10.47
2019-04-21T14:41:30.316Z,11.07
2019-04-21T14:46:39.434Z,11.30
2019-04-21T14:51:49.733Z,10.90
2019-04-21T14:56:57.560Z,10.30
2019-04-21T15:02:04.156Z,10.07
2019-04-21T15:07:12.910Z,12.93
2019-04-21T15:17:31.696Z,15.35
2019-04-21T15:22:38.675Z,12.50
2019-04-21T15:27:45.145Z,11.87
2019-04-21T15:32:54.756Z,12.60
2019-04-21T15:43:08.529Z,12.20
2019-04-21T15:48:18.275Z,11.90
2019-04-21T15:53:27.732Z,12.97
2019-04-21T15:58:41.022Z,12.00
2019-04-21T16:03:49.010Z,13.43
2019-04-21T16:14:03.767Z,11.63
2019-04-21T16:19:12.158Z,16.55
2019-04-21T16:24:18.688Z,13.62
2019-04-21T16:29:29.237Z,17.43
2019-04-21T16:34:45.575Z,13.80
2019-04-21T16:39:47.433Z,15.68
2019-04-21T16:44:54.810Z,12.87
2019-04-21T16:50:01.620Z,14.47
2019-04-21T16:55:10.672Z,14.00
2019-04-21T17:00:29.015Z,12.87
2019-04-21T17:05:27.887Z,44.77
2019-04-21T17:10:35.014Z,15.90
2019-04-21T17:15:53.111Z,44.33
2019-04-21T17:20:55.388Z,39.13
2019-04-21T17:25:59.208Z,20.77
2019-04-21T17:31:06.540Z,15.67
2019-04-21T17:36:14.687Z,13.80
2019-04-21T17:41:29.056Z,16.42
2019-04-21T17:46:38.853Z,15.90
2019-04-21T17:51:55.180Z,18.00
2019-04-21T17:57:23.178Z,17.17
2019-04-21T18:02:35.153Z,16.30
2019-04-21T18:07:36.342Z,25.27
2019-04-21T18:12:39.769Z,30.72
2019-04-21T18:17:34.205Z,50.50
2019-04-21T18:22:46.927Z,58.33
2019-04-21T18:32:58.353Z,27.53
2019-04-21T18:38:13.288Z,23.90
2019-04-21T18:44:04.448Z,82.65
2019-04-21T18:48:41.204Z,136.03
2019-04-21T18:53:58.024Z,103.22
2019-04-21T19:04:00.457Z,82.20
2019-04-21T19:09:26.692Z,74.43
2019-04-21T19:14:35.738Z,70.27
2019-04-21T19:19:56.314Z,66.90
2019-04-21T19:24:55.505Z,61.53
2019-04-21T19:30:26.887Z,59.10
2019-04-21T19:34:54.913Z,57.75
2019-04-21T19:45:22.480Z,37.43
2019-04-21T19:50:35.493Z,61.63
2019-04-21T20:00:30.764Z,150.57
2019-04-21T20:05:45.363Z,130.70
2019-04-21T20:11:04.050Z,71.23
2019-04-21T20:16:12.972Z,71.67
2019-04-21T20:21:01.898Z,34.80
2019-04-21T20:26:11.494Z,37.67
2019-04-21T20:31:29.248Z,33.53
2019-04-21T20:36:47.764Z,30.83
2019-04-21T20:41:44.253Z,27.52
2019-04-21T20:57:11.217Z,27.77
2019-04-21T21:02:17.204Z,24.35
2019-04-21T21:07:40.276Z,113.10
2019-04-21T21:12:43.175Z,93.17
2019-04-21T21:22:53.279Z,135.40
2019-04-21T21:27:53.162Z,238.55
2019-04-21T21:33:11.520Z,250.33
2019-04-21T21:53:28.465Z,166.90
2019-04-21T21:58:38.166Z,207.43
2019-04-21T22:03:46.291Z,260.40
2019-04-21T22:08:54.401Z,225.83
2019-04-21T22:14:08.027Z,186.10
2019-04-21T22:24:38.814Z,226.07
2019-04-21T22:29:36.331Z,231.70
2019-04-21T22:34:47.759Z,147.43
2019-04-21T22:40:04.709Z,319.80
2019-04-21T22:45:00.810Z,207.67
2019-04-21T22:50:10.560Z,222.67
2019-04-21T22:55:23.569Z,155.43
2019-04-21T23:00:31.300Z,186.47
2019-04-21T23:05:40.769Z,165.43
2019-04-21T23:10:55.866Z,145.80
2019-04-21T23:15:57.712Z,119.55
2019-04-21T23:21:15.024Z,95.97
2019-04-21T23:26:26.719Z,52.30
2019-04-21T23:31:37.234Z,29.77
2019-04-21T23:36:29.638Z,94.30
2019-04-21T23:41:41.356Z,56.17
2019-04-21T23:51:58.037Z,44.80
2019-04-21T23:56:57.974Z,87.43
